sensor_id;sensor_type;location;lat;lon;timestamp;temperature;humidity
71039;SHT30;58692;43.212;27.908;2023-12-20T00:00:58;5.61;86.76
71039;SHT30;58692;43.212;27.908;2023-12-20T00:03:24;5.56;86.83
71039;SHT30;58692;43.212;27.908;2023-12-20T00:05:50;5.54;86.78
71039;SHT30;58692;43.212;27.908;2023-12-20T00:08:16;5.48;86.93
71039;SHT30;58692;43.212;27.908;2023-12-20T00:10:43;5.44;86.84
71039;SHT30;58692;43.212;27.908;2023-12-20T00:13:08;5.35;86.82
71039;SHT30;58692;43.212;27.908;2023-12-20T00:15:34;5.35;86.84
71039;SHT30;58692;43.212;27.908;2023-12-20T00:18:00;5.35;87.00
71039;SHT30;58692;43.212;27.908;2023-12-20T00:20:26;5.37;86.68
71039;SHT30;58692;43.212;27.908;2023-12-20T00:22:54;5.32;86.86
71039;SHT30;58692;43.212;27.908;2023-12-20T00:25:20;5.37;86.86
71039;SHT30;58692;43.212;27.908;2023-12-20T00:27:45;5.37;86.87
71039;SHT30;58692;43.212;27.908;2023-12-20T00:30:11;5.35;86.95
71039;SHT30;58692;43.212;27.908;2023-12-20T00:32:36;5.32;87.02
71039;SHT30;58692;43.212;27.908;2023-12-20T00:35:02;5.27;87.03
71039;SHT30;58692;43.212;27.908;2023-12-20T00:37:28;5.28;87.13
71039;SHT30;58692;43.212;27.908;2023-12-20T00:39:53;5.28;87.08
71039;SHT30;58692;43.212;27.908;2023-12-20T00:42:19;5.20;87.50
71039;SHT30;58692;43.212;27.908;2023-12-20T00:44:45;5.28;87.35
71039;SHT30;58692;43.212;27.908;2023-12-20T00:47:11;5.30;87.16
71039;SHT30;58692;43.212;27.908;2023-12-20T00:49:36;5.28;87.12
71039;SHT30;58692;43.212;27.908;2023-12-20T00:52:02;5.28;87.33
71039;SHT30;58692;43.212;27.908;2023-12-20T00:54:27;5.28;87.27
71039;SHT30;58692;43.212;27.908;2023-12-20T00:56:53;5.32;87.08
71039;SHT30;58692;43.212;27.908;2023-12-20T00:59:19;5.40;87.22
71039;SHT30;58692;43.212;27.908;2023-12-20T01:01:44;5.44;86.83
71039;SHT30;58692;43.212;27.908;2023-12-20T01:04:10;5.41;86.77
71039;SHT30;58692;43.212;27.908;2023-12-20T01:06:36;5.40;86.88
71039;SHT30;58692;43.212;27.908;2023-12-20T01:09:02;5.38;86.76
71039;SHT30;58692;43.212;27.908;2023-12-20T01:11:28;5.37;86.86
71039;SHT30;58692;43.212;27.908;2023-12-20T01:13:53;5.30;87.13
71039;SHT30;58692;43.212;27.908;2023-12-20T01:16:19;5.23;87.51
71039;SHT30;58692;43.212;27.908;2023-12-20T01:18:45;5.19;87.61
71039;SHT30;58692;43.212;27.908;2023-12-20T01:21:10;5.26;87.49
71039;SHT30;58692;43.212;27.908;2023-12-20T01:23:36;5.23;87.64
71039;SHT30;58692;43.212;27.908;2023-12-20T01:26:02;5.23;87.56
71039;SHT30;58692;43.212;27.908;2023-12-20T01:28:28;5.26;87.47
71039;SHT30;58692;43.212;27.908;2023-12-20T01:30:54;5.28;87.41
71039;SHT30;58692;43.212;27.908;2023-12-20T01:33:19;5.27;87.53
71039;SHT30;58692;43.212;27.908;2023-12-20T01:35:45;5.28;87.68
71039;SHT30;58692;43.212;27.908;2023-12-20T01:38:10;5.28;87.60
71039;SHT30;58692;43.212;27.908;2023-12-20T01:40:36;5.28;87.52
71039;SHT30;58692;43.212;27.908;2023-12-20T01:43:06;5.28;87.50
71039;SHT30;58692;43.212;27.908;2023-12-20T01:45:32;5.20;88.12
71039;SHT30;58692;43.212;27.908;2023-12-20T01:47:58;5.19;87.98
71039;SHT30;58692;43.212;27.908;2023-12-20T01:50:28;5.16;88.24
71039;SHT30;58692;43.212;27.908;2023-12-20T01:52:55;5.19;88.28
71039;SHT30;58692;43.212;27.908;2023-12-20T01:55:24;5.17;88.35
71039;SHT30;58692;43.212;27.908;2023-12-20T01:57:50;5.07;88.62
71039;SHT30;58692;43.212;27.908;2023-12-20T02:00:16;5.01;88.44
71039;SHT30;58692;43.212;27.908;2023-12-20T02:02:45;5.00;88.24
71039;SHT30;58692;43.212;27.908;2023-12-20T02:05:11;4.80;88.36
71039;SHT30;58692;43.212;27.908;2023-12-20T02:07:37;4.91;88.19
71039;SHT30;58692;43.212;27.908;2023-12-20T02:10:03;4.86;88.33
71039;SHT30;58692;43.212;27.908;2023-12-20T02:12:30;4.86;88.17
71039;SHT30;58692;43.212;27.908;2023-12-20T02:14:55;4.81;88.09
71039;SHT30;58692;43.212;27.908;2023-12-20T02:17:22;4.80;88.09
71039;SHT30;58692;43.212;27.908;2023-12-20T02:19:47;4.79;88.46
71039;SHT30;58692;43.212;27.908;2023-12-20T02:22:13;4.81;88.29
71039;SHT30;58692;43.212;27.908;2023-12-20T02:24:39;4.77;88.28
71039;SHT30;58692;43.212;27.908;2023-12-20T02:27:06;4.81;88.23
71039;SHT30;58692;43.212;27.908;2023-12-20T02:29:34;4.80;88.20
71039;SHT30;58692;43.212;27.908;2023-12-20T02:32:00;4.77;88.29
71039;SHT30;58692;43.212;27.908;2023-12-20T02:34:25;4.83;88.22
71039;SHT30;58692;43.212;27.908;2023-12-20T02:36:51;4.83;88.19
71039;SHT30;58692;43.212;27.908;2023-12-20T02:39:17;4.81;88.23
71039;SHT30;58692;43.212;27.908;2023-12-20T02:41:43;4.84;87.94
71039;SHT30;58692;43.212;27.908;2023-12-20T02:44:09;4.83;88.00
71039;SHT30;58692;43.212;27.908;2023-12-20T02:46:34;4.83;88.18
71039;SHT30;58692;43.212;27.908;2023-12-20T02:49:00;4.84;88.02
71039;SHT30;58692;43.212;27.908;2023-12-20T02:51:26;4.86;88.02
71039;SHT30;58692;43.212;27.908;2023-12-20T02:53:51;4.87;88.08
71039;SHT30;58692;43.212;27.908;2023-12-20T02:56:17;4.87;88.15
71039;SHT30;58692;43.212;27.908;2023-12-20T02:58:42;4.89;88.13
71039;SHT30;58692;43.212;27.908;2023-12-20T03:01:08;4.90;87.99
71039;SHT30;58692;43.212;27.908;2023-12-20T03:03:34;4.91;88.24
71039;SHT30;58692;43.212;27.908;2023-12-20T03:06:00;4.90;88.23
71039;SHT30;58692;43.212;27.908;2023-12-20T03:08:25;4.89;88.42
71039;SHT30;58692;43.212;27.908;2023-12-20T03:10:51;4.89;88.61
71039;SHT30;58692;43.212;27.908;2023-12-20T03:13:16;4.94;88.51
71039;SHT30;58692;43.212;27.908;2023-12-20T03:15:45;4.97;88.43
71039;SHT30;58692;43.212;27.908;2023-12-20T03:18:11;4.99;88.33
71039;SHT30;58692;43.212;27.908;2023-12-20T03:20:36;4.94;88.28
71039;SHT30;58692;43.212;27.908;2023-12-20T03:23:02;4.99;88.43
71039;SHT30;58692;43.212;27.908;2023-12-20T03:25:28;4.97;88.35
71039;SHT30;58692;43.212;27.908;2023-12-20T03:27:54;4.93;88.42
71039;SHT30;58692;43.212;27.908;2023-12-20T03:30:20;4.89;88.64
71039;SHT30;58692;43.212;27.908;2023-12-20T03:32:46;4.90;88.81
71039;SHT30;58692;43.212;27.908;2023-12-20T03:35:12;4.89;88.55
71039;SHT30;58692;43.212;27.908;2023-12-20T03:37:38;4.83;88.60
71039;SHT30;58692;43.212;27.908;2023-12-20T03:40:04;4.86;88.55
71039;SHT30;58692;43.212;27.908;2023-12-20T03:42:30;4.84;88.49
71039;SHT30;58692;43.212;27.908;2023-12-20T03:44:56;4.79;88.42
71039;SHT30;58692;43.212;27.908;2023-12-20T03:47:22;4.72;88.52
71039;SHT30;58692;43.212;27.908;2023-12-20T03:49:47;4.67;88.36
71039;SHT30;58692;43.212;27.908;2023-12-20T03:52:13;4.63;88.25
71039;SHT30;58692;43.212;27.908;2023-12-20T03:54:40;4.66;88.10
71039;SHT30;58692;43.212;27.908;2023-12-20T03:57:07;4.70;88.12
71039;SHT30;58692;43.212;27.908;2023-12-20T03:59:35;4.69;88.04
71039;SHT30;58692;43.212;27.908;2023-12-20T04:02:01;4.69;88.00
71039;SHT30;58692;43.212;27.908;2023-12-20T04:04:27;4.62;87.96
71039;SHT30;58692;43.212;27.908;2023-12-20T04:06:53;4.63;88.24
71039;SHT30;58692;43.212;27.908;2023-12-20T04:09:18;4.62;88.22
71039;SHT30;58692;43.212;27.908;2023-12-20T04:11:44;4.62;88.32
71039;SHT30;58692;43.212;27.908;2023-12-20T04:14:09;4.60;88.30
71039;SHT30;58692;43.212;27.908;2023-12-20T04:16:35;4.62;88.23
71039;SHT30;58692;43.212;27.908;2023-12-20T04:19:01;4.65;88.22
71039;SHT30;58692;43.212;27.908;2023-12-20T04:21:27;4.57;88.28
71039;SHT30;58692;43.212;27.908;2023-12-20T04:23:53;4.52;88.78
71039;SHT30;58692;43.212;27.908;2023-12-20T04:26:19;4.32;88.84
71039;SHT30;58692;43.212;27.908;2023-12-20T04:28:44;4.12;89.43
71039;SHT30;58692;43.212;27.908;2023-12-20T04:31:10;4.15;89.21
71039;SHT30;58692;43.212;27.908;2023-12-20T04:33:35;4.16;88.83
71039;SHT30;58692;43.212;27.908;2023-12-20T04:36:01;4.09;89.07
71039;SHT30;58692;43.212;27.908;2023-12-20T04:38:26;4.08;88.78
71039;SHT30;58692;43.212;27.908;2023-12-20T04:40:52;3.93;89.20
71039;SHT30;58692;43.212;27.908;2023-12-20T04:43:18;3.94;89.25
71039;SHT30;58692;43.212;27.908;2023-12-20T04:45:43;3.94;89.12
71039;SHT30;58692;43.212;27.908;2023-12-20T04:48:09;3.88;89.35
71039;SHT30;58692;43.212;27.908;2023-12-20T04:50:34;3.91;89.38
71039;SHT30;58692;43.212;27.908;2023-12-20T04:53:00;3.85;89.62
71039;SHT30;58692;43.212;27.908;2023-12-20T04:55:26;3.75;89.62
71039;SHT30;58692;43.212;27.908;2023-12-20T04:57:51;3.63;90.12
71039;SHT30;58692;43.212;27.908;2023-12-20T05:00:17;3.74;89.93
71039;SHT30;58692;43.212;27.908;2023-12-20T05:02:43;3.81;89.54
71039;SHT30;58692;43.212;27.908;2023-12-20T05:05:08;3.84;89.43
71039;SHT30;58692;43.212;27.908;2023-12-20T05:07:34;3.88;89.23
71039;SHT30;58692;43.212;27.908;2023-12-20T05:10:00;3.93;89.07
71039;SHT30;58692;43.212;27.908;2023-12-20T05:12:26;3.93;89.05
71039;SHT30;58692;43.212;27.908;2023-12-20T05:14:52;3.88;89.28
71039;SHT30;58692;43.212;27.908;2023-12-20T05:17:17;3.85;89.26
71039;SHT30;58692;43.212;27.908;2023-12-20T05:19:45;3.88;89.25
71039;SHT30;58692;43.212;27.908;2023-12-20T05:22:11;3.85;89.41
71039;SHT30;58692;43.212;27.908;2023-12-20T05:24:37;3.88;89.22
71039;SHT30;58692;43.212;27.908;2023-12-20T05:27:05;3.75;89.44
71039;SHT30;58692;43.212;27.908;2023-12-20T05:29:31;3.57;90.22
71039;SHT30;58692;43.212;27.908;2023-12-20T05:31:58;3.75;89.69
71039;SHT30;58692;43.212;27.908;2023-12-20T05:34:24;3.73;89.82
71039;SHT30;58692;43.212;27.908;2023-12-20T05:36:49;3.77;89.65
71039;SHT30;58692;43.212;27.908;2023-12-20T05:39:15;3.88;89.46
71039;SHT30;58692;43.212;27.908;2023-12-20T05:41:41;3.93;89.17
71039;SHT30;58692;43.212;27.908;2023-12-20T05:44:06;3.98;89.05
71039;SHT30;58692;43.212;27.908;2023-12-20T05:46:32;4.02;88.90
71039;SHT30;58692;43.212;27.908;2023-12-20T05:48:58;4.05;88.75
71039;SHT30;58692;43.212;27.908;2023-12-20T05:51:23;4.01;88.69
71039;SHT30;58692;43.212;27.908;2023-12-20T05:53:49;4.08;88.67
71039;SHT30;58692;43.212;27.908;2023-12-20T05:56:15;3.97;88.76
71039;SHT30;58692;43.212;27.908;2023-12-20T05:58:41;4.04;88.75
71039;SHT30;58692;43.212;27.908;2023-12-20T06:01:07;4.09;88.73
71039;SHT30;58692;43.212;27.908;2023-12-20T06:03:34;4.15;88.60
71039;SHT30;58692;43.212;27.908;2023-12-20T06:06:05;4.21;88.43
71039;SHT30;58692;43.212;27.908;2023-12-20T06:08:32;4.22;88.45
71039;SHT30;58692;43.212;27.908;2023-12-20T06:10:57;4.22;88.35
71039;SHT30;58692;43.212;27.908;2023-12-20T06:13:23;4.19;88.88
71039;SHT30;58692;43.212;27.908;2023-12-20T06:15:49;4.26;88.77
71039;SHT30;58692;43.212;27.908;2023-12-20T06:18:15;4.35;88.66
71039;SHT30;58692;43.212;27.908;2023-12-20T06:20:40;4.45;88.44
71039;SHT30;58692;43.212;27.908;2023-12-20T06:23:06;4.48;88.29
71039;SHT30;58692;43.212;27.908;2023-12-20T06:25:33;4.52;88.57
71039;SHT30;58692;43.212;27.908;2023-12-20T06:27:58;4.66;88.60
71039;SHT30;58692;43.212;27.908;2023-12-20T06:30:24;5.01;87.86
71039;SHT30;58692;43.212;27.908;2023-12-20T06:32:50;5.62;86.25
71039;SHT30;58692;43.212;27.908;2023-12-20T06:35:16;6.44;84.04
71039;SHT30;58692;43.212;27.908;2023-12-20T06:37:42;6.98;81.53
71039;SHT30;58692;43.212;27.908;2023-12-20T06:40:09;7.49;79.78
71039;SHT30;58692;43.212;27.908;2023-12-20T06:42:35;7.93;78.09
71039;SHT30;58692;43.212;27.908;2023-12-20T06:45:02;8.35;76.55
71039;SHT30;58692;43.212;27.908;2023-12-20T06:47:27;8.68;75.18
71039;SHT30;58692;43.212;27.908;2023-12-20T06:49:53;9.05;74.19
71039;SHT30;58692;43.212;27.908;2023-12-20T06:52:19;9.51;72.60
71039;SHT30;58692;43.212;27.908;2023-12-20T06:54:44;9.87;71.55
71039;SHT30;58692;43.212;27.908;2023-12-20T06:57:10;10.11;70.34
71039;SHT30;58692;43.212;27.908;2023-12-20T06:59:40;10.12;70.36
71039;SHT30;58692;43.212;27.908;2023-12-20T07:02:08;10.55;69.59
71039;SHT30;58692;43.212;27.908;2023-12-20T07:04:40;10.87;68.56
71039;SHT30;58692;43.212;27.908;2023-12-20T07:07:06;11.01;67.76
71039;SHT30;58692;43.212;27.908;2023-12-20T07:09:33;11.24;67.48
71039;SHT30;58692;43.212;27.908;2023-12-20T07:11:59;10.79;68.69
71039;SHT30;58692;43.212;27.908;2023-12-20T07:14:25;11.21;67.70
71039;SHT30;58692;43.212;27.908;2023-12-20T07:16:50;11.45;67.06
71039;SHT30;58692;43.212;27.908;2023-12-20T07:19:16;11.26;67.61
71039;SHT30;58692;43.212;27.908;2023-12-20T07:21:42;11.42;67.29
71039;SHT30;58692;43.212;27.908;2023-12-20T07:24:08;10.99;68.31
71039;SHT30;58692;43.212;27.908;2023-12-20T07:26:35;11.13;68.39
71039;SHT30;58692;43.212;27.908;2023-12-20T07:29:01;10.96;68.65
71039;SHT30;58692;43.212;27.908;2023-12-20T07:31:28;10.90;69.07
71039;SHT30;58692;43.212;27.908;2023-12-20T07:33:54;10.80;69.27
71039;SHT30;58692;43.212;27.908;2023-12-20T07:36:19;10.70;69.67
71039;SHT30;58692;43.212;27.908;2023-12-20T07:38:49;10.62;70.21
71039;SHT30;58692;43.212;27.908;2023-12-20T07:41:15;10.45;70.70
71039;SHT30;58692;43.212;27.908;2023-12-20T07:43:43;10.46;70.92
71039;SHT30;58692;43.212;27.908;2023-12-20T07:46:12;10.35;71.64
71039;SHT30;58692;43.212;27.908;2023-12-20T07:48:38;10.28;71.97
71039;SHT30;58692;43.212;27.908;2023-12-20T07:51:04;10.32;72.16
71039;SHT30;58692;43.212;27.908;2023-12-20T07:53:33;10.26;72.51
71039;SHT30;58692;43.212;27.908;2023-12-20T07:55:58;10.28;73.20
71039;SHT30;58692;43.212;27.908;2023-12-20T07:58:30;10.36;73.06
71039;SHT30;58692;43.212;27.908;2023-12-20T08:00:56;10.43;73.27
71039;SHT30;58692;43.212;27.908;2023-12-20T08:03:22;10.62;73.37
71039;SHT30;58692;43.212;27.908;2023-12-20T08:05:48;10.81;73.25
71039;SHT30;58692;43.212;27.908;2023-12-20T08:08:14;10.86;73.26
71039;SHT30;58692;43.212;27.908;2023-12-20T08:10:40;10.79;73.15
71039;SHT30;58692;43.212;27.908;2023-12-20T08:13:05;10.86;72.34
71039;SHT30;58692;43.212;27.908;2023-12-20T08:15:40;10.94;72.52
71039;SHT30;58692;43.212;27.908;2023-12-20T08:18:06;11.00;71.27
71039;SHT30;58692;43.212;27.908;2023-12-20T08:20:34;11.06;68.13
71039;SHT30;58692;43.212;27.908;2023-12-20T08:23:06;11.14;69.15
71039;SHT30;58692;43.212;27.908;2023-12-20T08:25:32;11.37;67.11
71039;SHT30;58692;43.212;27.908;2023-12-20T08:27:57;11.41;65.87
71039;SHT30;58692;43.212;27.908;2023-12-20T08:30:23;11.48;65.56
71039;SHT30;58692;43.212;27.908;2023-12-20T08:32:50;11.64;66.77
71039;SHT30;58692;43.212;27.908;2023-12-20T08:35:18;11.74;65.27
71039;SHT30;58692;43.212;27.908;2023-12-20T08:37:45;11.90;64.83
71039;SHT30;58692;43.212;27.908;2023-12-20T08:40:19;12.08;65.13
71039;SHT30;58692;43.212;27.908;2023-12-20T08:42:46;12.18;67.37
71039;SHT30;58692;43.212;27.908;2023-12-20T08:45:11;12.29;66.52
71039;SHT30;58692;43.212;27.908;2023-12-20T08:47:38;12.49;65.48
71039;SHT30;58692;43.212;27.908;2023-12-20T08:50:10;12.53;65.32
71039;SHT30;58692;43.212;27.908;2023-12-20T08:52:36;12.67;65.46
71039;SHT30;58692;43.212;27.908;2023-12-20T08:55:08;12.59;66.12
71039;SHT30;58692;43.212;27.908;2023-12-20T08:57:44;12.93;66.23
71039;SHT30;58692;43.212;27.908;2023-12-20T09:00:11;13.14;66.39
71039;SHT30;58692;43.212;27.908;2023-12-20T09:02:39;13.14;66.23
71039;SHT30;58692;43.212;27.908;2023-12-20T09:05:05;13.48;66.01
71039;SHT30;58692;43.212;27.908;2023-12-20T09:07:31;13.55;64.66
71039;SHT30;58692;43.212;27.908;2023-12-20T09:09:57;13.65;64.39
71039;SHT30;58692;43.212;27.908;2023-12-20T09:12:24;13.65;64.34
71039;SHT30;58692;43.212;27.908;2023-12-20T09:14:51;14.00;63.56
71039;SHT30;58692;43.212;27.908;2023-12-20T09:17:20;14.18;63.13
71039;SHT30;58692;43.212;27.908;2023-12-20T09:19:51;14.03;63.23
71039;SHT30;58692;43.212;27.908;2023-12-20T09:22:40;14.36;62.80
71039;SHT30;58692;43.212;27.908;2023-12-20T09:25:07;14.60;62.19
71039;SHT30;58692;43.212;27.908;2023-12-20T09:27:36;14.95;61.49
71039;SHT30;58692;43.212;27.908;2023-12-20T09:30:05;15.11;60.62
71039;SHT30;58692;43.212;27.908;2023-12-20T09:32:31;15.28;59.93
71039;SHT30;58692;43.212;27.908;2023-12-20T09:34:57;15.32;59.56
71039;SHT30;58692;43.212;27.908;2023-12-20T09:37:26;15.80;58.85
71039;SHT30;58692;43.212;27.908;2023-12-20T09:39:52;15.66;58.63
71039;SHT30;58692;43.212;27.908;2023-12-20T09:42:34;16.28;56.83
71039;SHT30;58692;43.212;27.908;2023-12-20T09:45:09;16.49;56.48
71039;SHT30;58692;43.212;27.908;2023-12-20T09:47:35;16.18;56.66
71039;SHT30;58692;43.212;27.908;2023-12-20T09:50:02;16.59;56.34
71039;SHT30;58692;43.212;27.908;2023-12-20T09:52:29;16.28;56.33
71039;SHT30;58692;43.212;27.908;2023-12-20T09:54:55;16.03;57.20
71039;SHT30;58692;43.212;27.908;2023-12-20T09:57:22;15.63;58.02
71039;SHT30;58692;43.212;27.908;2023-12-20T09:59:48;15.74;58.50
71039;SHT30;58692;43.212;27.908;2023-12-20T10:02:14;16.25;56.68
71039;SHT30;58692;43.212;27.908;2023-12-20T10:04:49;16.59;55.61
71039;SHT30;58692;43.212;27.908;2023-12-20T10:07:15;17.27;54.35
71039;SHT30;58692;43.212;27.908;2023-12-20T10:09:41;17.02;53.60
71039;SHT30;58692;43.212;27.908;2023-12-20T10:12:07;17.29;53.96
71039;SHT30;58692;43.212;27.908;2023-12-20T10:14:34;15.96;56.62
71039;SHT30;58692;43.212;27.908;2023-12-20T10:17:03;16.11;56.86
71039;SHT30;58692;43.212;27.908;2023-12-20T10:19:32;16.17;56.64
71039;SHT30;58692;43.212;27.908;2023-12-20T10:21:59;15.84;57.43
71039;SHT30;58692;43.212;27.908;2023-12-20T10:24:25;15.90;57.91
71039;SHT30;58692;43.212;27.908;2023-12-20T10:27:08;16.41;56.97
71039;SHT30;58692;43.212;27.908;2023-12-20T10:29:35;16.54;57.15
71039;SHT30;58692;43.212;27.908;2023-12-20T10:32:21;16.64;57.79
71039;SHT30;58692;43.212;27.908;2023-12-20T10:34:47;17.06;57.09
71039;SHT30;58692;43.212;27.908;2023-12-20T10:37:13;17.02;57.73
71039;SHT30;58692;43.212;27.908;2023-12-20T10:39:39;16.86;58.16
71039;SHT30;58692;43.212;27.908;2023-12-20T10:42:12;16.75;59.05
71039;SHT30;58692;43.212;27.908;2023-12-20T10:44:41;15.91;61.30
71039;SHT30;58692;43.212;27.908;2023-12-20T10:47:06;15.60;62.18
71039;SHT30;58692;43.212;27.908;2023-12-20T10:49:44;15.94;61.41
71039;SHT30;58692;43.212;27.908;2023-12-20T10:52:14;16.14;60.74
71039;SHT30;58692;43.212;27.908;2023-12-20T10:54:40;16.64;59.52
71039;SHT30;58692;43.212;27.908;2023-12-20T10:57:07;16.71;58.34
71039;SHT30;58692;43.212;27.908;2023-12-20T10:59:37;16.25;58.92
71039;SHT30;58692;43.212;27.908;2023-12-20T11:02:04;15.71;58.13
71039;SHT30;58692;43.212;27.908;2023-12-20T11:04:44;15.15;58.06
71039;SHT30;58692;43.212;27.908;2023-12-20T11:09:59;15.82;57.13
71039;SHT30;58692;43.212;27.908;2023-12-20T11:12:32;16.01;56.48
71039;SHT30;58692;43.212;27.908;2023-12-20T11:14:59;16.42;55.47
71039;SHT30;58692;43.212;27.908;2023-12-20T11:17:31;16.79;54.81
71039;SHT30;58692;43.212;27.908;2023-12-20T11:20:06;16.64;55.40
71039;SHT30;58692;43.212;27.908;2023-12-20T11:22:35;16.92;55.02
71039;SHT30;58692;43.212;27.908;2023-12-20T11:25:05;16.86;55.46
71039;SHT30;58692;43.212;27.908;2023-12-20T11:27:34;16.48;56.74
71039;SHT30;58692;43.212;27.908;2023-12-20T11:30:04;16.28;58.95
71039;SHT30;58692;43.212;27.908;2023-12-20T11:32:36;16.18;60.30
71039;SHT30;58692;43.212;27.908;2023-12-20T11:35:18;15.93;61.87
71039;SHT30;58692;43.212;27.908;2023-12-20T11:37:54;15.50;64.03
71039;SHT30;58692;43.212;27.908;2023-12-20T11:40:23;15.32;65.64
71039;SHT30;58692;43.212;27.908;2023-12-20T11:42:51;15.06;66.69
71039;SHT30;58692;43.212;27.908;2023-12-20T11:45:21;15.21;66.31
71039;SHT30;58692;43.212;27.908;2023-12-20T11:47:52;15.13;66.70
71039;SHT30;58692;43.212;27.908;2023-12-20T11:50:20;15.11;67.26
71039;SHT30;58692;43.212;27.908;2023-12-20T11:52:48;15.21;65.77
71039;SHT30;58692;43.212;27.908;2023-12-20T11:55:14;14.79;67.58
71039;SHT30;58692;43.212;27.908;2023-12-20T11:57:40;14.91;66.78
71039;SHT30;58692;43.212;27.908;2023-12-20T12:00:06;15.13;66.24
71039;SHT30;58692;43.212;27.908;2023-12-20T12:02:32;15.21;66.30
71039;SHT30;58692;43.212;27.908;2023-12-20T12:04:59;15.03;66.38
71039;SHT30;58692;43.212;27.908;2023-12-20T12:07:25;15.22;65.73
71039;SHT30;58692;43.212;27.908;2023-12-20T12:09:51;14.95;65.06
71039;SHT30;58692;43.212;27.908;2023-12-20T12:12:18;15.16;64.71
71039;SHT30;58692;43.212;27.908;2023-12-20T12:14:45;15.05;65.23
71039;SHT30;58692;43.212;27.908;2023-12-20T12:17:12;14.52;67.07
71039;SHT30;58692;43.212;27.908;2023-12-20T12:19:42;13.73;69.68
71039;SHT30;58692;43.212;27.908;2023-12-20T12:24:39;13.38;70.94
71039;SHT30;58692;43.212;27.908;2023-12-20T12:27:06;13.63;70.62
71039;SHT30;58692;43.212;27.908;2023-12-20T12:29:33;13.67;70.77
71039;SHT30;58692;43.212;27.908;2023-12-20T12:31:59;13.52;71.49
71039;SHT30;58692;43.212;27.908;2023-12-20T12:34:27;13.79;70.78
71039;SHT30;58692;43.212;27.908;2023-12-20T12:36:53;13.76;71.57
71039;SHT30;58692;43.212;27.908;2023-12-20T12:39:19;13.62;72.02
71039;SHT30;58692;43.212;27.908;2023-12-20T12:41:45;13.54;72.39
71039;SHT30;58692;43.212;27.908;2023-12-20T12:44:11;13.72;72.19
71039;SHT30;58692;43.212;27.908;2023-12-20T12:46:40;13.90;71.91
71039;SHT30;58692;43.212;27.908;2023-12-20T12:49:08;14.00;70.97
71039;SHT30;58692;43.212;27.908;2023-12-20T12:51:33;13.83;70.89
71039;SHT30;58692;43.212;27.908;2023-12-20T12:53:59;13.76;71.00
71039;SHT30;58692;43.212;27.908;2023-12-20T12:56:25;13.69;70.96
71039;SHT30;58692;43.212;27.908;2023-12-20T12:58:51;13.83;70.64
71039;SHT30;58692;43.212;27.908;2023-12-20T13:01:18;13.16;72.38
71039;SHT30;58692;43.212;27.908;2023-12-20T13:03:43;12.44;74.87
71039;SHT30;58692;43.212;27.908;2023-12-20T13:06:10;12.18;76.29
71039;SHT30;58692;43.212;27.908;2023-12-20T13:08:39;11.93;77.45
71039;SHT30;58692;43.212;27.908;2023-12-20T13:11:04;11.86;78.28
71039;SHT30;58692;43.212;27.908;2023-12-20T13:13:31;11.69;79.06
71039;SHT30;58692;43.212;27.908;2023-12-20T13:15:57;11.54;79.94
71039;SHT30;58692;43.212;27.908;2023-12-20T13:18:26;11.52;80.22
71039;SHT30;58692;43.212;27.908;2023-12-20T13:20:54;11.61;80.14
71039;SHT30;58692;43.212;27.908;2023-12-20T13:23:20;11.57;80.28
71039;SHT30;58692;43.212;27.908;2023-12-20T13:25:46;11.61;80.09
71039;SHT30;58692;43.212;27.908;2023-12-20T13:28:12;11.45;80.59
71039;SHT30;58692;43.212;27.908;2023-12-20T13:30:38;11.47;80.69
71039;SHT30;58692;43.212;27.908;2023-12-20T13:33:08;11.45;80.76
71039;SHT30;58692;43.212;27.908;2023-12-20T13:35:34;11.34;80.87
71039;SHT30;58692;43.212;27.908;2023-12-20T13:38:00;11.23;81.01
71039;SHT30;58692;43.212;27.908;2023-12-20T13:40:26;11.18;81.26
71039;SHT30;58692;43.212;27.908;2023-12-20T13:42:56;11.17;81.99
71039;SHT30;58692;43.212;27.908;2023-12-20T13:45:22;11.14;81.92
71039;SHT30;58692;43.212;27.908;2023-12-20T13:47:47;11.10;82.06
71039;SHT30;58692;43.212;27.908;2023-12-20T13:50:16;11.13;81.72
71039;SHT30;58692;43.212;27.908;2023-12-20T13:52:43;11.11;81.82
71039;SHT30;58692;43.212;27.908;2023-12-20T13:55:09;11.21;81.62
71039;SHT30;58692;43.212;27.908;2023-12-20T13:57:35;11.14;81.22
71039;SHT30;58692;43.212;27.908;2023-12-20T14:00:04;11.10;81.85
71039;SHT30;58692;43.212;27.908;2023-12-20T14:02:30;11.14;81.95
71039;SHT30;58692;43.212;27.908;2023-12-20T14:04:55;11.13;81.91
71039;SHT30;58692;43.212;27.908;2023-12-20T14:07:21;11.13;82.05
71039;SHT30;58692;43.212;27.908;2023-12-20T14:09:48;11.17;82.12
71039;SHT30;58692;43.212;27.908;2023-12-20T14:12:14;11.20;81.63
71039;SHT30;58692;43.212;27.908;2023-12-20T14:14:40;11.14;81.77
71039;SHT30;58692;43.212;27.908;2023-12-20T14:17:11;11.14;82.20
71039;SHT30;58692;43.212;27.908;2023-12-20T14:19:41;11.07;82.86
71039;SHT30;58692;43.212;27.908;2023-12-20T14:22:07;11.03;83.24
71039;SHT30;58692;43.212;27.908;2023-12-20T14:24:32;10.89;83.93
71039;SHT30;58692;43.212;27.908;2023-12-20T14:27:01;10.70;85.28
71039;SHT30;58692;43.212;27.908;2023-12-20T14:29:27;10.72;85.50
71039;SHT30;58692;43.212;27.908;2023-12-20T14:31:52;10.69;86.01
71039;SHT30;58692;43.212;27.908;2023-12-20T14:34:23;10.62;86.21
71039;SHT30;58692;43.212;27.908;2023-12-20T14:36:49;10.65;86.22
71039;SHT30;58692;43.212;27.908;2023-12-20T14:39:15;10.48;86.62
71039;SHT30;58692;43.212;27.908;2023-12-20T14:41:42;10.43;86.88
71039;SHT30;58692;43.212;27.908;2023-12-20T14:44:07;10.33;87.46
71039;SHT30;58692;43.212;27.908;2023-12-20T14:46:33;10.32;87.58
71039;SHT30;58692;43.212;27.908;2023-12-20T14:48:59;10.41;87.40
71039;SHT30;58692;43.212;27.908;2023-12-20T14:51:26;10.35;86.99
71039;SHT30;58692;43.212;27.908;2023-12-20T14:53:52;10.36;86.73
71039;SHT30;58692;43.212;27.908;2023-12-20T14:56:18;10.31;86.67
71039;SHT30;58692;43.212;27.908;2023-12-20T14:58:43;10.28;86.95
71039;SHT30;58692;43.212;27.908;2023-12-20T15:01:09;10.33;86.41
71039;SHT30;58692;43.212;27.908;2023-12-20T15:03:35;10.35;86.42
71039;SHT30;58692;43.212;27.908;2023-12-20T15:06:00;10.41;86.03
71039;SHT30;58692;43.212;27.908;2023-12-20T15:08:26;10.41;86.05
71039;SHT30;58692;43.212;27.908;2023-12-20T15:10:54;10.46;86.04
71039;SHT30;58692;43.212;27.908;2023-12-20T15:13:20;10.50;85.66
71039;SHT30;58692;43.212;27.908;2023-12-20T15:15:47;10.46;85.62
71039;SHT30;58692;43.212;27.908;2023-12-20T15:18:15;10.29;86.23
71039;SHT30;58692;43.212;27.908;2023-12-20T15:21:03;10.29;86.01
71039;SHT30;58692;43.212;27.908;2023-12-20T15:23:36;10.22;86.31
71039;SHT30;58692;43.212;27.908;2023-12-20T15:26:03;10.35;85.86